Aktuell sind 84 Gäste und ein Mitglied online

[source: ADDS]
METAR
EDVE 201220Z 00000KT 9999 -DZ FEW016 SCT024 OVC034 21/21 Q1010

EDDV 201220Z 18008KT 140V200 9999 SCT012 BKN110 21/19 Q1009 NOSIG

ETHS 201120Z 23006KT 6000 -RA SCT005 BKN090 20/18 Q1009 WHT BLU TEMPO GRN

ETHC 201120Z 16005KT 9000 -RA FEW007 BKN035 BKN080 19/18 Q1010 BLU BLU TEMPO WHT

EDVK 201220Z 19009KT 160V230 9999 FEW015 BKN021 23/19 Q1010

TAF
TAF EDVE 201100Z 2012/2021 23004KT 9999 SCT040 TEMPO 2012/2021 23012KT SCT025CB PROB40 TEMPO 2012/2021 4000 TSRA PROB30 TEMPO 2014/2018 24015G35KT 2500 +SHRA

TAF EDDV 201100Z 2012/2112 21004KT 9999 SCT040 TEMPO 2012/2023 23013KT SCT020CB PROB40 TEMPO 2012/2023 4500 TSRA SCT008 BKN015CB PROB30 TEMPO 2014/2018 24015G35KT 2500 +SHRA BECMG 2021/2023 27005KT

TAF ETHS 201018Z 2011/2020 22007KT 9000 NSW SCT030 BKN070 TEMPO 2011/2014 27012KT 5000 SHRA BKN007 BKN020CB TEMPO 2014/2020 VRB15G30KT 1500 TSRA BKN005 BKN012CB

TAF ETHC 201004Z 2011/2020 18005KT 9999 NSW FEW010 BKN080 TEMPO 2011/2018 VRB03KT 5000 RA SCT007 BKN060 PROB30 2013/2018 24012G25KT 1500 TSRA SCT003 BKN050CB

TAF EDVK 201100Z 2012/2021 21010KT 9999 SCT030 PROB30 TEMPO 2012/2018 22015G25KT SHRA SCT025CB BECMG 2018/2021 22005KT

SR / SS: 03:22 / 19:26 UTC (EDVE 2017-07-20)
Wir haben einen neuen Fluglehrer! Hallo Bernd, viel Spaß im Verein und mit deinen zukünftigen Schülern! +++ Florian hat seine PPL Prüfung bestanden! Herzlichen Glückwunsch und always happy landings! +++ Herzlich Willkommen im Verein Hakan! Viel Erfolg und Spaß bei deiner Ausbildung! +++ Wir begrüßen Harry als neues Mitglied im Verein! Herzlich Willkommen! +++ Ferdinand und Dennis haben die Theorieprüfung bestanden! Herzlichen Glückwunsch! +++ Neue Aquila 211 mit NVFR Zulassung und Glascockpit bestellt! ETA April 2017! +++ Herzlich Willkommen im Verein Mike! +++ Georg startet seine Ausbildung! Viel Erfolg und always happy landings! +++ Wir begrüßen Lasse als neues Mitglied im Verein und wünschen always happy landings! +++ Hallo und herzlichen Willkommen im Verein Thomas! +++ Die Termine für den nächsten BZF Kurs sind online! +++ Lukas hat das BZF bestanden! Herzlichen Glückwunsch!

 

Das Prinzip des Heizgerätes zum Vorheizen unserer Flugzeuge ist einfach: Ein Gasbrenner erhitzt Luft und bläst sie in eine Blechkiste. Dort beschleunigt ein großer Lüfter die Luft und drückt sie durch Luftschläuche in den Motorraum eines Flugzeuges. Nach etwa 20-30 Minuten Vorheizzeit ist eine ausreichende Temperatur zum Motorstart vorhanden.

Weiterlesen ...

Auch im Winter stehen unsere Flugzeuge sicher untergebracht in unserer Halle. Schneelast- und sturmwinderprobt ist sie bereits und hat diese Wettereinflüsse prima überstanden. Im Winter sind bei Schnee und Eis ein paar Erfahrungswerte nützlich:

Weiterlesen ...

Die Halle erlaubt eine einfache Aufstellung der Luftfahrzeuge. Jedem Flugzeug ist ein fester Platz zugewiesen der es erlaubt, mit geringem Aufwand das gewünschte Flugzeug nach vorne zu holen. Ziel bei der gewählten Aufstellung ist es,

Weiterlesen ...

Das Tor der Halle ist ein sogenanntes Planentor, es funktioniert ungefähr so wie ein Duschvorhang. Die linke und die rechte Hälfte des Tores waren in der Mitte durch sechs Gurte verbunden (drei an der Innenseite, drei an der Außenseite), wenn das Tor geschlossen ist.

Der obere Gurt (innen und außen) ist für normal große Leute

Weiterlesen ...

Die installierte elektrische Anlage ist wartungsfrei. Das Licht wird automatisch, durch Bewegungssensoren gesteuert, ein- und ausgeschaltet.

Weiterlesen ...

Letztes NOTAM EDVE
von 28.07.2017 0800Z bis 28.07.2017 1400Z
INTENSIVE LAUNCH OF MODEL ROCKETS 0.5NM RADIUS CENTERED ON PSN 521348N 0103752E SICKTE (6NM SSE BRAUNSCHWEIG NDB BRU).
GND- 2300FT [more]


Letztes NOTAM EDBC
von 01.06.2017 1143Z bis 30.08.2017 1143Z
AD CLSD.

Letztes NOTAM EDVM
von 09.08.2017 1800Z bis 15.08.2017 0700Z
AIRFIELD CLSD DUE TO EVENT.

Letztes NOTAM EDDV
von 07.08.2017 0001Z bis 31.10.2017 2359Z
TRIGGER NOTAM - AIP SUP IFR 14/17 (20 JUL 2017) EFF 07 AUG 2017 TIL 31 OCT 2017. CONSTRUCTION WORK AT HANNOVER AIRPORT. FOR COMPLETE I [more]

Letztes NOTAM EDVK
von 04.09.2017 0830Z bis 07.09.2017 1000Z
WARBURG DVOR/DME WRB 113.70/CH84X ON MAINT. DO NOT USE, FALSE INDICATIONS POSS.

Letztes NOTAM ETHS
von 24.07.2017 0600Z bis 27.07.2017 0900Z
DAILY 0600-0900
PAR RWY27 OUT OF SERVICE.

EDCB.png          aerodata150     Radio38